sensor_id;sensor_type;location;lat;lon;timestamp;P1;durP1;ratioP1;P2;durP2;ratioP2
55794;SDS011;41716;51.910;4.430;2023-02-12T00:01:09;4.60;;;2.03;;
55794;SDS011;41716;51.910;4.430;2023-02-12T00:06:14;6.00;;;2.53;;
55794;SDS011;41716;51.910;4.430;2023-02-12T00:11:17;5.82;;;2.80;;
55794;SDS011;41716;51.910;4.430;2023-02-12T00:16:22;8.27;;;3.92;;
55794;SDS011;41716;51.910;4.430;2023-02-12T00:21:26;4.63;;;2.65;;
55794;SDS011;41716;51.910;4.430;2023-02-12T00:26:28;7.82;;;3.75;;
55794;SDS011;41716;51.910;4.430;2023-02-12T00:31:30;6.00;;;3.20;;
55794;SDS011;41716;51.910;4.430;2023-02-12T00:36:33;5.63;;;2.53;;
55794;SDS011;41716;51.910;4.430;2023-02-12T00:41:35;4.15;;;2.70;;
55794;SDS011;41716;51.910;4.430;2023-02-12T00:46:36;4.32;;;2.40;;
55794;SDS011;41716;51.910;4.430;2023-02-12T00:51:39;3.80;;;2.05;;
55794;SDS011;41716;51.910;4.430;2023-02-12T00:56:41;3.90;;;2.25;;
55794;SDS011;41716;51.910;4.430;2023-02-12T01:01:43;5.82;;;2.20;;
55794;SDS011;41716;51.910;4.430;2023-02-12T01:06:46;3.58;;;1.95;;
55794;SDS011;41716;51.910;4.430;2023-02-12T01:11:47;4.80;;;2.45;;
55794;SDS011;41716;51.910;4.430;2023-02-12T01:16:49;5.35;;;3.20;;
55794;SDS011;41716;51.910;4.430;2023-02-12T01:21:52;6.25;;;3.47;;
55794;SDS011;41716;51.910;4.430;2023-02-12T01:26:54;7.10;;;4.10;;
55794;SDS011;41716;51.910;4.430;2023-02-12T01:31:55;7.60;;;3.92;;
55794;SDS011;41716;51.910;4.430;2023-02-12T01:36:58;6.97;;;4.05;;
55794;SDS011;41716;51.910;4.430;2023-02-12T01:42:00;11.13;;;3.60;;
55794;SDS011;41716;51.910;4.430;2023-02-12T01:47:03;5.85;;;3.40;;
55794;SDS011;41716;51.910;4.430;2023-02-12T01:52:08;6.45;;;3.75;;
55794;SDS011;41716;51.910;4.430;2023-02-12T01:57:16;6.53;;;3.50;;
55794;SDS011;41716;51.910;4.430;2023-02-12T02:02:18;7.00;;;3.55;;
55794;SDS011;41716;51.910;4.430;2023-02-12T02:07:21;6.47;;;3.53;;
55794;SDS011;41716;51.910;4.430;2023-02-12T02:12:24;7.23;;;3.73;;
55794;SDS011;41716;51.910;4.430;2023-02-12T02:17:46;5.38;;;3.60;;
55794;SDS011;41716;51.910;4.430;2023-02-12T02:23:01;7.00;;;3.85;;
55794;SDS011;41716;51.910;4.430;2023-02-12T02:28:31;6.13;;;3.13;;
55794;SDS011;41716;51.910;4.430;2023-02-12T02:33:45;6.70;;;3.55;;
55794;SDS011;41716;51.910;4.430;2023-02-12T02:38:56;6.07;;;4.07;;
55794;SDS011;41716;51.910;4.430;2023-02-12T02:44:04;6.78;;;3.95;;
55794;SDS011;41716;51.910;4.430;2023-02-12T02:49:12;11.77;;;5.45;;
55794;SDS011;41716;51.910;4.430;2023-02-12T02:54:20;6.53;;;3.20;;
55794;SDS011;41716;51.910;4.430;2023-02-12T02:59:26;5.20;;;3.10;;
55794;SDS011;41716;51.910;4.430;2023-02-12T03:04:35;6.60;;;4.05;;
55794;SDS011;41716;51.910;4.430;2023-02-12T03:09:42;5.35;;;3.38;;
55794;SDS011;41716;51.910;4.430;2023-02-12T03:14:47;6.07;;;3.13;;
55794;SDS011;41716;51.910;4.430;2023-02-12T03:19:55;5.95;;;3.35;;
55794;SDS011;41716;51.910;4.430;2023-02-12T03:25:03;5.28;;;3.45;;
55794;SDS011;41716;51.910;4.430;2023-02-12T03:30:11;4.60;;;2.92;;
55794;SDS011;41716;51.910;4.430;2023-02-12T03:35:15;6.43;;;2.70;;
55794;SDS011;41716;51.910;4.430;2023-02-12T03:40:21;5.18;;;2.72;;
55794;SDS011;41716;51.910;4.430;2023-02-12T03:45:34;4.80;;;2.70;;
55794;SDS011;41716;51.910;4.430;2023-02-12T03:50:43;3.53;;;2.03;;
55794;SDS011;41716;51.910;4.430;2023-02-12T03:55:49;4.22;;;2.30;;
55794;SDS011;41716;51.910;4.430;2023-02-12T04:00:54;4.03;;;2.38;;
55794;SDS011;41716;51.910;4.430;2023-02-12T04:05:58;4.13;;;2.33;;
55794;SDS011;41716;51.910;4.430;2023-02-12T04:11:03;5.38;;;2.78;;
55794;SDS011;41716;51.910;4.430;2023-02-12T04:16:16;3.92;;;2.53;;
55794;SDS011;41716;51.910;4.430;2023-02-12T04:21:30;4.68;;;2.45;;
55794;SDS011;41716;51.910;4.430;2023-02-12T04:26:45;3.88;;;2.40;;
55794;SDS011;41716;51.910;4.430;2023-02-12T04:31:52;4.63;;;2.30;;
55794;SDS011;41716;51.910;4.430;2023-02-12T04:37:01;3.28;;;2.55;;
55794;SDS011;41716;51.910;4.430;2023-02-12T04:42:05;2.90;;;2.22;;
55794;SDS011;41716;51.910;4.430;2023-02-12T04:47:08;3.50;;;2.35;;
55794;SDS011;41716;51.910;4.430;2023-02-12T04:52:12;4.95;;;2.55;;
55794;SDS011;41716;51.910;4.430;2023-02-12T04:57:14;6.05;;;2.38;;
55794;SDS011;41716;51.910;4.430;2023-02-12T05:02:15;3.17;;;2.65;;
55794;SDS011;41716;51.910;4.430;2023-02-12T05:07:18;4.28;;;2.80;;
55794;SDS011;41716;51.910;4.430;2023-02-12T05:12:20;6.38;;;2.95;;
55794;SDS011;41716;51.910;4.430;2023-02-12T05:17:22;4.68;;;2.65;;
55794;SDS011;41716;51.910;4.430;2023-02-12T05:22:25;4.82;;;2.80;;
55794;SDS011;41716;51.910;4.430;2023-02-12T05:27:27;4.90;;;3.10;;
55794;SDS011;41716;51.910;4.430;2023-02-12T05:32:29;5.20;;;3.47;;
55794;SDS011;41716;51.910;4.430;2023-02-12T05:37:34;6.18;;;3.10;;
55794;SDS011;41716;51.910;4.430;2023-02-12T05:42:36;3.97;;;2.95;;
55794;SDS011;41716;51.910;4.430;2023-02-12T05:47:38;4.65;;;2.55;;
55794;SDS011;41716;51.910;4.430;2023-02-12T05:52:41;4.45;;;3.15;;
55794;SDS011;41716;51.910;4.430;2023-02-12T05:57:42;3.53;;;2.75;;
55794;SDS011;41716;51.910;4.430;2023-02-12T06:02:44;3.67;;;2.58;;
55794;SDS011;41716;51.910;4.430;2023-02-12T06:07:47;4.03;;;2.50;;
55794;SDS011;41716;51.910;4.430;2023-02-12T06:12:52;5.40;;;2.17;;
55794;SDS011;41716;51.910;4.430;2023-02-12T06:17:54;3.53;;;2.40;;
55794;SDS011;41716;51.910;4.430;2023-02-12T06:22:57;3.42;;;2.15;;
55794;SDS011;41716;51.910;4.430;2023-02-12T06:27:58;3.70;;;2.50;;
55794;SDS011;41716;51.910;4.430;2023-02-12T06:33:00;4.35;;;1.88;;
55794;SDS011;41716;51.910;4.430;2023-02-12T06:38:03;3.42;;;2.20;;
55794;SDS011;41716;51.910;4.430;2023-02-12T06:43:05;5.05;;;2.70;;
55794;SDS011;41716;51.910;4.430;2023-02-12T06:48:06;3.97;;;2.83;;
55794;SDS011;41716;51.910;4.430;2023-02-12T06:53:09;3.47;;;2.47;;
55794;SDS011;41716;51.910;4.430;2023-02-12T06:58:11;5.47;;;2.75;;
55794;SDS011;41716;51.910;4.430;2023-02-12T07:03:13;4.53;;;2.30;;
55794;SDS011;41716;51.910;4.430;2023-02-12T07:08:16;4.35;;;2.08;;
55794;SDS011;41716;51.910;4.430;2023-02-12T07:13:17;3.35;;;2.33;;
55794;SDS011;41716;51.910;4.430;2023-02-12T07:18:19;4.55;;;2.38;;
55794;SDS011;41716;51.910;4.430;2023-02-12T07:23:22;4.60;;;2.55;;
55794;SDS011;41716;51.910;4.430;2023-02-12T07:28:23;4.45;;;2.80;;
55794;SDS011;41716;51.910;4.430;2023-02-12T07:33:25;4.65;;;2.65;;
55794;SDS011;41716;51.910;4.430;2023-02-12T07:38:28;6.43;;;2.50;;
55794;SDS011;41716;51.910;4.430;2023-02-12T07:43:30;4.82;;;2.72;;
55794;SDS011;41716;51.910;4.430;2023-02-12T07:48:32;3.17;;;2.38;;
55794;SDS011;41716;51.910;4.430;2023-02-12T07:53:35;6.82;;;2.92;;
55794;SDS011;41716;51.910;4.430;2023-02-12T07:58:37;4.77;;;3.17;;
55794;SDS011;41716;51.910;4.430;2023-02-12T08:03:40;5.70;;;3.30;;
55794;SDS011;41716;51.910;4.430;2023-02-12T08:08:44;5.85;;;3.33;;
55794;SDS011;41716;51.910;4.430;2023-02-12T08:13:45;4.18;;;3.08;;
55794;SDS011;41716;51.910;4.430;2023-02-12T08:18:47;5.15;;;3.50;;
55794;SDS011;41716;51.910;4.430;2023-02-12T08:23:50;9.00;;;5.18;;
55794;SDS011;41716;51.910;4.430;2023-02-12T08:28:54;5.00;;;3.42;;
55794;SDS011;41716;51.910;4.430;2023-02-12T08:33:58;6.03;;;3.30;;
55794;SDS011;41716;51.910;4.430;2023-02-12T08:39:02;6.20;;;3.50;;
55794;SDS011;41716;51.910;4.430;2023-02-12T08:44:05;6.15;;;3.55;;
55794;SDS011;41716;51.910;4.430;2023-02-12T08:49:07;6.38;;;3.50;;
55794;SDS011;41716;51.910;4.430;2023-02-12T08:54:13;5.25;;;3.75;;
55794;SDS011;41716;51.910;4.430;2023-02-12T08:59:16;7.43;;;3.80;;
55794;SDS011;41716;51.910;4.430;2023-02-12T09:04:19;5.00;;;3.55;;
55794;SDS011;41716;51.910;4.430;2023-02-12T09:09:24;5.68;;;3.78;;
55794;SDS011;41716;51.910;4.430;2023-02-12T09:14:26;6.38;;;4.22;;
55794;SDS011;41716;51.910;4.430;2023-02-12T09:19:28;8.40;;;4.60;;
55794;SDS011;41716;51.910;4.430;2023-02-12T09:24:31;6.07;;;4.20;;
55794;SDS011;41716;51.910;4.430;2023-02-12T09:29:32;6.90;;;3.95;;
55794;SDS011;41716;51.910;4.430;2023-02-12T09:34:34;5.93;;;4.22;;
55794;SDS011;41716;51.910;4.430;2023-02-12T09:39:37;7.22;;;4.63;;
55794;SDS011;41716;51.910;4.430;2023-02-12T09:44:41;7.23;;;4.30;;
55794;SDS011;41716;51.910;4.430;2023-02-12T09:49:54;6.85;;;4.78;;
55794;SDS011;41716;51.910;4.430;2023-02-12T09:55:04;6.45;;;4.57;;
55794;SDS011;41716;51.910;4.430;2023-02-12T10:00:08;8.37;;;5.30;;
55794;SDS011;41716;51.910;4.430;2023-02-12T10:05:13;8.93;;;4.88;;
55794;SDS011;41716;51.910;4.430;2023-02-12T10:10:22;8.63;;;5.05;;
55794;SDS011;41716;51.910;4.430;2023-02-12T10:15:33;7.83;;;5.40;;
55794;SDS011;41716;51.910;4.430;2023-02-12T10:20:51;7.63;;;5.10;;
55794;SDS011;41716;51.910;4.430;2023-02-12T10:25:58;9.27;;;6.00;;
55794;SDS011;41716;51.910;4.430;2023-02-12T10:31:06;6.97;;;5.07;;
55794;SDS011;41716;51.910;4.430;2023-02-12T10:36:15;10.65;;;6.18;;
55794;SDS011;41716;51.910;4.430;2023-02-12T10:41:28;10.10;;;5.88;;
55794;SDS011;41716;51.910;4.430;2023-02-12T10:46:32;11.10;;;6.18;;
55794;SDS011;41716;51.910;4.430;2023-02-12T10:51:38;10.05;;;5.72;;
55794;SDS011;41716;51.910;4.430;2023-02-12T10:56:51;8.13;;;5.43;;
55794;SDS011;41716;51.910;4.430;2023-02-12T11:01:53;9.00;;;5.70;;
55794;SDS011;41716;51.910;4.430;2023-02-12T11:06:59;7.57;;;5.00;;
55794;SDS011;41716;51.910;4.430;2023-02-12T11:12:04;9.30;;;5.10;;
55794;SDS011;41716;51.910;4.430;2023-02-12T11:17:28;6.37;;;3.97;;
55794;SDS011;41716;51.910;4.430;2023-02-12T11:22:34;6.53;;;4.53;;
55794;SDS011;41716;51.910;4.430;2023-02-12T11:27:37;7.10;;;4.15;;
55794;SDS011;41716;51.910;4.430;2023-02-12T11:32:39;9.02;;;3.95;;
55794;SDS011;41716;51.910;4.430;2023-02-12T11:37:42;7.00;;;3.80;;
55794;SDS011;41716;51.910;4.430;2023-02-12T11:42:48;8.18;;;4.10;;
55794;SDS011;41716;51.910;4.430;2023-02-12T11:47:52;6.43;;;3.80;;
55794;SDS011;41716;51.910;4.430;2023-02-12T11:52:55;7.65;;;3.60;;
55794;SDS011;41716;51.910;4.430;2023-02-12T11:58:02;6.82;;;3.83;;
55794;SDS011;41716;51.910;4.430;2023-02-12T12:03:10;6.97;;;3.78;;
55794;SDS011;41716;51.910;4.430;2023-02-12T12:08:17;5.68;;;4.25;;
55794;SDS011;41716;51.910;4.430;2023-02-12T12:13:26;7.68;;;5.07;;
55794;SDS011;41716;51.910;4.430;2023-02-12T12:18:33;10.88;;;5.78;;
55794;SDS011;41716;51.910;4.430;2023-02-12T12:24:02;9.68;;;5.38;;
55794;SDS011;41716;51.910;4.430;2023-02-12T12:29:12;9.38;;;5.70;;
55794;SDS011;41716;51.910;4.430;2023-02-12T12:34:20;8.40;;;5.68;;
55794;SDS011;41716;51.910;4.430;2023-02-12T12:39:27;9.63;;;5.57;;
55794;SDS011;41716;51.910;4.430;2023-02-12T12:44:40;16.45;;;6.95;;
55794;SDS011;41716;51.910;4.430;2023-02-12T12:49:57;11.15;;;6.22;;
55794;SDS011;41716;51.910;4.430;2023-02-12T12:55:10;9.75;;;6.57;;
55794;SDS011;41716;51.910;4.430;2023-02-12T13:00:55;12.85;;;7.47;;
55794;SDS011;41716;51.910;4.430;2023-02-12T13:11:55;11.15;;;7.32;;
55794;SDS011;41716;51.910;4.430;2023-02-12T13:17:12;15.75;;;8.63;;
55794;SDS011;41716;51.910;4.430;2023-02-12T13:22:20;15.55;;;8.82;;
55794;SDS011;41716;51.910;4.430;2023-02-12T13:27:29;13.43;;;8.48;;
55794;SDS011;41716;51.910;4.430;2023-02-12T13:32:35;16.92;;;9.25;;
55794;SDS011;41716;51.910;4.430;2023-02-12T13:37:43;13.80;;;8.18;;
55794;SDS011;41716;51.910;4.430;2023-02-12T13:42:49;15.50;;;9.52;;
55794;SDS011;41716;51.910;4.430;2023-02-12T13:48:05;15.88;;;9.38;;
55794;SDS011;41716;51.910;4.430;2023-02-12T13:53:21;14.40;;;8.90;;
55794;SDS011;41716;51.910;4.430;2023-02-12T13:58:46;14.55;;;9.32;;
55794;SDS011;41716;51.910;4.430;2023-02-12T14:03:50;18.23;;;10.32;;
55794;SDS011;41716;51.910;4.430;2023-02-12T14:08:52;18.90;;;10.65;;
55794;SDS011;41716;51.910;4.430;2023-02-12T14:14:08;15.05;;;8.93;;
55794;SDS011;41716;51.910;4.430;2023-02-12T14:24:48;13.38;;;8.40;;
55794;SDS011;41716;51.910;4.430;2023-02-12T14:30:20;17.38;;;9.43;;
55794;SDS011;41716;51.910;4.430;2023-02-12T14:35:33;17.55;;;10.50;;
55794;SDS011;41716;51.910;4.430;2023-02-12T14:40:38;16.20;;;9.82;;
55794;SDS011;41716;51.910;4.430;2023-02-12T14:45:41;18.25;;;10.35;;
55794;SDS011;41716;51.910;4.430;2023-02-12T14:50:44;17.17;;;10.10;;
55794;SDS011;41716;51.910;4.430;2023-02-12T14:55:51;14.98;;;9.40;;
55794;SDS011;41716;51.910;4.430;2023-02-12T15:00:54;20.08;;;9.68;;
55794;SDS011;41716;51.910;4.430;2023-02-12T15:06:03;14.57;;;8.63;;
55794;SDS011;41716;51.910;4.430;2023-02-12T15:11:16;17.40;;;9.48;;
55794;SDS011;41716;51.910;4.430;2023-02-12T15:16:26;18.63;;;10.07;;
55794;SDS011;41716;51.910;4.430;2023-02-12T15:21:34;16.90;;;9.43;;
55794;SDS011;41716;51.910;4.430;2023-02-12T15:26:38;17.98;;;9.25;;
55794;SDS011;41716;51.910;4.430;2023-02-12T15:36:44;21.23;;;8.90;;
55794;SDS011;41716;51.910;4.430;2023-02-12T15:41:46;17.57;;;9.83;;
55794;SDS011;41716;51.910;4.430;2023-02-12T15:46:59;18.05;;;9.77;;
55794;SDS011;41716;51.910;4.430;2023-02-12T15:52:05;19.10;;;9.50;;
55794;SDS011;41716;51.910;4.430;2023-02-12T15:57:10;19.80;;;9.93;;
55794;SDS011;41716;51.910;4.430;2023-02-12T16:02:16;17.63;;;9.75;;
55794;SDS011;41716;51.910;4.430;2023-02-12T16:07:21;22.05;;;10.30;;
55794;SDS011;41716;51.910;4.430;2023-02-12T16:12:24;18.20;;;9.95;;
55794;SDS011;41716;51.910;4.430;2023-02-12T16:17:31;19.35;;;10.07;;
55794;SDS011;41716;51.910;4.430;2023-02-12T16:22:36;21.45;;;10.60;;
55794;SDS011;41716;51.910;4.430;2023-02-12T16:27:39;17.55;;;9.43;;
55794;SDS011;41716;51.910;4.430;2023-02-12T16:32:42;19.52;;;10.32;;
55794;SDS011;41716;51.910;4.430;2023-02-12T16:37:47;19.17;;;9.70;;
55794;SDS011;41716;51.910;4.430;2023-02-12T16:42:59;18.05;;;9.50;;
55794;SDS011;41716;51.910;4.430;2023-02-12T16:48:07;17.97;;;9.53;;
55794;SDS011;41716;51.910;4.430;2023-02-12T16:53:23;21.55;;;10.10;;
55794;SDS011;41716;51.910;4.430;2023-02-12T16:58:27;18.67;;;9.98;;
55794;SDS011;41716;51.910;4.430;2023-02-12T17:03:28;19.33;;;9.65;;
55794;SDS011;41716;51.910;4.430;2023-02-12T17:08:32;17.88;;;9.60;;
55794;SDS011;41716;51.910;4.430;2023-02-12T17:13:33;17.80;;;9.38;;
55794;SDS011;41716;51.910;4.430;2023-02-12T17:18:35;18.80;;;9.35;;
55794;SDS011;41716;51.910;4.430;2023-02-12T17:23:38;20.70;;;9.27;;
55794;SDS011;41716;51.910;4.430;2023-02-12T17:33:43;18.90;;;9.52;;
55794;SDS011;41716;51.910;4.430;2023-02-12T17:38:46;21.48;;;10.40;;
55794;SDS011;41716;51.910;4.430;2023-02-12T17:43:47;19.33;;;10.57;;
55794;SDS011;41716;51.910;4.430;2023-02-12T17:48:49;22.25;;;9.93;;
55794;SDS011;41716;51.910;4.430;2023-02-12T17:53:52;19.95;;;10.38;;
55794;SDS011;41716;51.910;4.430;2023-02-12T17:58:54;21.88;;;11.65;;
55794;SDS011;41716;51.910;4.430;2023-02-12T18:03:56;20.35;;;10.88;;
55794;SDS011;41716;51.910;4.430;2023-02-12T18:08:59;20.10;;;10.20;;
55794;SDS011;41716;51.910;4.430;2023-02-12T18:14:01;22.63;;;11.70;;
55794;SDS011;41716;51.910;4.430;2023-02-12T18:19:03;22.48;;;12.23;;
55794;SDS011;41716;51.910;4.430;2023-02-12T18:24:06;21.65;;;11.32;;
55794;SDS011;41716;51.910;4.430;2023-02-12T18:29:08;24.77;;;12.00;;
55794;SDS011;41716;51.910;4.430;2023-02-12T18:34:10;20.95;;;11.07;;
55794;SDS011;41716;51.910;4.430;2023-02-12T18:39:13;23.13;;;11.73;;
55794;SDS011;41716;51.910;4.430;2023-02-12T18:44:15;20.77;;;12.13;;
55794;SDS011;41716;51.910;4.430;2023-02-12T18:49:17;23.40;;;11.18;;
55794;SDS011;41716;51.910;4.430;2023-02-12T18:54:20;18.95;;;10.52;;
55794;SDS011;41716;51.910;4.430;2023-02-12T18:59:21;23.67;;;11.32;;
55794;SDS011;41716;51.910;4.430;2023-02-12T19:04:23;19.85;;;10.85;;
55794;SDS011;41716;51.910;4.430;2023-02-12T19:09:28;20.52;;;10.48;;
55794;SDS011;41716;51.910;4.430;2023-02-12T19:14:29;20.98;;;11.10;;
55794;SDS011;41716;51.910;4.430;2023-02-12T19:19:31;22.92;;;10.73;;
55794;SDS011;41716;51.910;4.430;2023-02-12T19:24:34;19.92;;;9.88;;
55794;SDS011;41716;51.910;4.430;2023-02-12T19:29:36;18.58;;;9.93;;
55794;SDS011;41716;51.910;4.430;2023-02-12T19:34:37;18.33;;;9.25;;
55794;SDS011;41716;51.910;4.430;2023-02-12T19:39:40;18.42;;;9.55;;
55794;SDS011;41716;51.910;4.430;2023-02-12T19:44:42;17.45;;;9.02;;
55794;SDS011;41716;51.910;4.430;2023-02-12T19:49:45;19.42;;;9.75;;
55794;SDS011;41716;51.910;4.430;2023-02-12T19:54:48;20.60;;;9.55;;
55794;SDS011;41716;51.910;4.430;2023-02-12T19:59:50;21.02;;;9.82;;
55794;SDS011;41716;51.910;4.430;2023-02-12T20:04:52;22.50;;;10.25;;
55794;SDS011;41716;51.910;4.430;2023-02-12T20:09:55;19.45;;;9.68;;
55794;SDS011;41716;51.910;4.430;2023-02-12T20:14:56;19.75;;;10.05;;
55794;SDS011;41716;51.910;4.430;2023-02-12T20:19:59;20.27;;;10.55;;
55794;SDS011;41716;51.910;4.430;2023-02-12T20:25:03;17.05;;;9.07;;
55794;SDS011;41716;51.910;4.430;2023-02-12T20:30:05;20.53;;;9.70;;
55794;SDS011;41716;51.910;4.430;2023-02-12T20:35:08;19.42;;;10.15;;
55794;SDS011;41716;51.910;4.430;2023-02-12T20:40:11;17.33;;;9.23;;
55794;SDS011;41716;51.910;4.430;2023-02-12T20:45:13;22.00;;;10.93;;
55794;SDS011;41716;51.910;4.430;2023-02-12T20:50:15;19.73;;;10.43;;
55794;SDS011;41716;51.910;4.430;2023-02-12T20:55:18;19.40;;;10.55;;
55794;SDS011;41716;51.910;4.430;2023-02-12T21:00:20;22.90;;;11.30;;
55794;SDS011;41716;51.910;4.430;2023-02-12T21:05:21;23.33;;;11.40;;
55794;SDS011;41716;51.910;4.430;2023-02-12T21:10:24;21.20;;;10.52;;
55794;SDS011;41716;51.910;4.430;2023-02-12T21:15:26;21.63;;;10.95;;
55794;SDS011;41716;51.910;4.430;2023-02-12T21:20:28;23.73;;;11.52;;
55794;SDS011;41716;51.910;4.430;2023-02-12T21:25:31;23.67;;;11.52;;
55794;SDS011;41716;51.910;4.430;2023-02-12T21:30:32;24.70;;;11.80;;
55794;SDS011;41716;51.910;4.430;2023-02-12T21:35:34;21.50;;;11.45;;
55794;SDS011;41716;51.910;4.430;2023-02-12T21:40:37;23.50;;;12.13;;
55794;SDS011;41716;51.910;4.430;2023-02-12T21:45:47;26.70;;;12.65;;
55794;SDS011;41716;51.910;4.430;2023-02-12T21:50:49;24.15;;;11.52;;
55794;SDS011;41716;51.910;4.430;2023-02-12T21:55:52;22.88;;;11.60;;
55794;SDS011;41716;51.910;4.430;2023-02-12T22:00:54;24.00;;;12.30;;
55794;SDS011;41716;51.910;4.430;2023-02-12T22:05:58;26.48;;;13.10;;
55794;SDS011;41716;51.910;4.430;2023-02-12T22:11:01;26.40;;;13.10;;
55794;SDS011;41716;51.910;4.430;2023-02-12T22:16:08;25.40;;;12.55;;
55794;SDS011;41716;51.910;4.430;2023-02-12T22:21:10;24.35;;;12.25;;
55794;SDS011;41716;51.910;4.430;2023-02-12T22:26:16;21.30;;;10.68;;
55794;SDS011;41716;51.910;4.430;2023-02-12T22:31:19;23.52;;;11.27;;
55794;SDS011;41716;51.910;4.430;2023-02-12T22:36:24;21.33;;;11.02;;
55794;SDS011;41716;51.910;4.430;2023-02-12T22:41:28;20.33;;;10.95;;
55794;SDS011;41716;51.910;4.430;2023-02-12T22:46:31;22.10;;;11.57;;
55794;SDS011;41716;51.910;4.430;2023-02-12T22:51:35;23.27;;;11.43;;
55794;SDS011;41716;51.910;4.430;2023-02-12T22:56:39;22.87;;;11.90;;
55794;SDS011;41716;51.910;4.430;2023-02-12T23:01:41;22.33;;;11.65;;
55794;SDS011;41716;51.910;4.430;2023-02-12T23:06:43;23.10;;;11.45;;
55794;SDS011;41716;51.910;4.430;2023-02-12T23:11:47;25.65;;;11.38;;
55794;SDS011;41716;51.910;4.430;2023-02-12T23:16:49;23.00;;;11.30;;
55794;SDS011;41716;51.910;4.430;2023-02-12T23:21:50;23.83;;;12.63;;
55794;SDS011;41716;51.910;4.430;2023-02-12T23:26:53;23.83;;;11.52;;
55794;SDS011;41716;51.910;4.430;2023-02-12T23:31:55;22.17;;;11.80;;
55794;SDS011;41716;51.910;4.430;2023-02-12T23:36:56;22.90;;;11.25;;
55794;SDS011;41716;51.910;4.430;2023-02-12T23:41:59;23.98;;;11.48;;
55794;SDS011;41716;51.910;4.430;2023-02-12T23:47:02;25.25;;;12.02;;
55794;SDS011;41716;51.910;4.430;2023-02-12T23:52:04;23.73;;;12.13;;
55794;SDS011;41716;51.910;4.430;2023-02-12T23:57:07;26.67;;;12.80;;
